Pagina principale
METAR-TAF:

METAR-TAF

Aeroporti :

Luxeuil-les-Bains, Francia

latitudine: 47-47N, longitudine: 006-21E, altezza: 278 m

Osservazione

Il bollettino è stato emesso 25 minuti fa, alle 20:30 UTC
Temperature 14°C
Umidità 58%
Pressione 1026 hPa
Visibilità 10 km o più

METAR: LFSX 222030Z AUTO /////KT 9999 NCD 14/06 Q1026

Ora: 22:55 (20:55 UTC)

Previsione

Il bollettino è stato emesso 6 ore e 55 minuti fa, alle 14:00 UTC
Previsione valida dal 22 alle 15 UTC al 23 alle 15 UTC
Vento 10 kt da nord
Visibilità 10 km o più
nessuna nube inferiore a 1500 m e nessun cumulonembo

TAF: LFSX 221400Z 2215/2315 36010KT CAVOK

Osservazioni e previsioni meteorologiche di più di 4000 aeroporti (messaggi METAR e TAF).

Le stazioni disponibili sono rappresentate dai dischi gialli e rossi sulla carta.

Puntare il mouse per vedere il nome della stazione.

Clicca sopra per visualizzare le osservazioni e previsioni meteorologiche.

Per cambiare la mappa : fare clic sui pulsanti verdi con una croce nera per ingrandire, il pulsante verde con un trattino per diminuire, o sulla freccia verde per le mappe adiacenti.


METAR-TAF: